createdAt,value
2018-06-19T00:00:13.328Z,87.72
2018-06-19T00:01:13.303Z,88.10
2018-06-19T00:02:13.292Z,86.33
2018-06-19T00:03:13.254Z,87.58
2018-06-19T00:04:13.243Z,87.19
2018-06-19T00:05:13.203Z,88.45
2018-06-19T00:06:13.199Z,87.29
2018-06-19T00:07:13.155Z,85.18
2018-06-19T00:08:13.126Z,87.68
2018-06-19T00:09:13.122Z,87.10
2018-06-19T00:10:13.078Z,87.10
2018-06-19T00:11:13.062Z,86.24
2018-06-19T00:12:13.046Z,85.47
2018-06-19T00:13:13.012Z,87.39
2018-06-19T00:14:12.985Z,87.68
2018-06-19T00:15:12.962Z,87.29
2018-06-19T00:16:12.934Z,87.19
2018-06-19T00:17:12.914Z,86.33
2018-06-19T00:18:12.886Z,87.29
2018-06-19T00:19:12.858Z,84.80
2018-06-19T00:20:12.842Z,86.81
2018-06-19T00:21:12.811Z,85.75
2018-06-19T00:22:12.794Z,87.49
2018-06-19T00:23:12.768Z,87.77
2018-06-19T00:24:12.744Z,87.01
2018-06-19T00:25:12.714Z,87.10
2018-06-19T00:26:12.687Z,87.29
2018-06-19T00:27:12.662Z,86.24
2018-06-19T00:28:12.643Z,86.52
2018-06-19T00:29:12.614Z,86.33
2018-06-19T00:30:12.590Z,86.00
2018-06-19T00:31:12.574Z,86.48
2018-06-19T00:32:12.536Z,86.91
2018-06-19T00:33:12.520Z,87.01
2018-06-19T00:34:12.495Z,87.05
2018-06-19T00:35:12.468Z,86.87
2018-06-19T00:36:12.439Z,85.66
2018-06-19T00:37:12.417Z,86.33
2018-06-19T00:38:12.395Z,87.15
2018-06-19T00:39:12.370Z,87.15
2018-06-19T00:40:12.339Z,86.58
2018-06-19T00:41:12.322Z,85.42
2018-06-19T00:42:12.295Z,86.68
2018-06-19T00:43:12.281Z,86.87
2018-06-19T00:44:12.242Z,85.62
2018-06-19T00:45:12.221Z,86.87
2018-06-19T00:46:12.194Z,86.58
2018-06-19T00:47:12.169Z,84.89
2018-06-19T00:48:12.152Z,87.01
2018-06-19T00:49:12.128Z,86.10
2018-06-19T00:50:12.092Z,86.68
2018-06-19T00:51:12.070Z,85.28
2018-06-19T00:52:12.049Z,86.33
2018-06-19T00:53:12.019Z,86.87
2018-06-19T00:54:11.998Z,86.43
2018-06-19T00:55:11.969Z,85.24
2018-06-19T00:56:11.948Z,85.81
2018-06-19T00:57:11.930Z,86.68
2018-06-19T00:58:11.896Z,86.19
2018-06-19T00:59:11.880Z,86.19
2018-06-19T01:00:11.845Z,86.68
2018-06-19T01:01:11.826Z,86.38
2018-06-19T01:02:11.807Z,85.71
2018-06-19T01:03:11.779Z,86.10
2018-06-19T01:04:11.751Z,84.66
2018-06-19T01:05:11.725Z,86.10
2018-06-19T01:06:11.704Z,86.10
2018-06-19T01:07:11.678Z,85.33
2018-06-19T01:08:11.654Z,83.12
2018-06-19T01:09:11.629Z,86.19
2018-06-19T01:10:11.601Z,85.52
2018-06-19T01:11:11.601Z,84.75
2018-06-19T01:12:11.565Z,86.48
2018-06-19T01:13:11.537Z,84.66
2018-06-19T01:14:11.520Z,85.33
2018-06-19T01:15:11.476Z,86.38
2018-06-19T01:16:11.461Z,85.81
2018-06-19T01:17:11.456Z,86.10
2018-06-19T01:18:11.402Z,86.00
2018-06-19T01:19:11.386Z,85.91
2018-06-19T01:20:11.363Z,83.80
2018-06-19T01:21:11.327Z,85.62
2018-06-19T01:22:11.308Z,84.80
2018-06-19T01:23:11.290Z,85.95
2018-06-19T01:24:11.263Z,82.78
2018-06-19T01:25:11.230Z,87.29
2018-06-19T01:26:11.212Z,86.19
2018-06-19T01:27:11.185Z,86.29
2018-06-19T01:28:11.157Z,85.47
2018-06-19T01:29:11.140Z,82.74
2018-06-19T01:30:11.109Z,83.51
2018-06-19T01:31:11.087Z,86.38
2018-06-19T01:32:11.067Z,86.00
2018-06-19T01:33:11.032Z,86.48
2018-06-19T01:34:11.020Z,85.75
2018-06-19T01:35:10.998Z,84.60
2018-06-19T01:36:10.962Z,84.95
2018-06-19T01:37:10.938Z,82.97
2018-06-19T01:38:10.980Z,85.66
2018-06-19T01:39:10.903Z,86.24
2018-06-19T01:40:10.868Z,86.43
2018-06-19T01:41:10.837Z,86.72
2018-06-19T01:42:10.826Z,86.14
2018-06-19T01:43:10.788Z,85.62
2018-06-19T01:44:10.765Z,83.89
2018-06-19T01:45:10.742Z,83.03
2018-06-19T01:46:10.717Z,82.30
2018-06-19T01:47:10.692Z,85.08
2018-06-19T01:48:10.681Z,84.22
2018-06-19T01:49:10.649Z,81.34
2018-06-19T01:50:10.620Z,83.93
2018-06-19T01:51:10.612Z,82.59
2018-06-19T01:52:10.565Z,82.20
2018-06-19T01:53:10.551Z,86.05
2018-06-19T01:54:10.532Z,84.80
2018-06-19T01:55:10.496Z,84.70
2018-06-19T01:56:10.469Z,85.95
2018-06-19T01:57:10.446Z,82.35
2018-06-19T01:58:10.420Z,84.75
2018-06-19T01:59:10.399Z,81.82
2018-06-19T02:00:10.382Z,83.26
2018-06-19T02:01:10.344Z,80.76
2018-06-19T02:02:10.329Z,85.24
2018-06-19T02:03:10.300Z,84.12
2018-06-19T02:04:10.272Z,85.42
2018-06-19T02:05:10.257Z,84.85
2018-06-19T02:06:10.227Z,84.56
2018-06-19T02:07:10.206Z,82.74
2018-06-19T02:08:10.172Z,84.66
2018-06-19T02:09:10.152Z,84.66
2018-06-19T02:10:10.125Z,85.42
2018-06-19T02:11:10.102Z,84.95
2018-06-19T02:12:10.084Z,85.04
2018-06-19T02:13:10.059Z,84.47
2018-06-19T02:14:10.027Z,85.24
2018-06-19T02:15:10.002Z,84.75
2018-06-19T02:16:09.977Z,83.89
2018-06-19T02:17:09.953Z,82.93
2018-06-19T02:18:09.931Z,82.16
2018-06-19T02:19:09.902Z,85.14
2018-06-19T02:20:09.882Z,84.75
2018-06-19T02:21:09.859Z,84.95
2018-06-19T02:22:09.830Z,84.75
2018-06-19T02:23:09.803Z,83.51
2018-06-19T02:24:09.788Z,85.62
2018-06-19T02:25:09.770Z,82.16
2018-06-19T02:26:09.734Z,83.89
2018-06-19T02:27:09.707Z,84.18
2018-06-19T02:28:09.685Z,83.03
2018-06-19T02:29:09.659Z,84.18
2018-06-19T02:30:09.633Z,85.71
2018-06-19T02:31:09.608Z,84.85
2018-06-19T02:32:09.583Z,83.51
2018-06-19T02:33:09.555Z,82.45
2018-06-19T02:34:09.541Z,84.80
2018-06-19T02:35:09.510Z,84.70
2018-06-19T02:36:09.490Z,86.05
2018-06-19T02:37:09.479Z,85.66
2018-06-19T02:38:09.433Z,84.75
2018-06-19T02:39:09.412Z,83.31
2018-06-19T02:40:09.388Z,86.05
2018-06-19T02:41:09.363Z,83.22
2018-06-19T02:42:09.348Z,83.74
2018-06-19T02:43:09.308Z,85.28
2018-06-19T02:44:09.292Z,83.07
2018-06-19T02:45:09.267Z,82.49
2018-06-19T02:46:09.235Z,86.05
2018-06-19T02:47:09.217Z,85.71
2018-06-19T02:48:09.185Z,85.47
2018-06-19T02:49:09.165Z,83.93
2018-06-19T02:50:09.141Z,83.64
2018-06-19T02:51:09.115Z,86.14
2018-06-19T02:52:09.091Z,83.60
2018-06-19T02:53:09.067Z,85.66
2018-06-19T02:54:09.039Z,84.56
2018-06-19T02:55:09.014Z,86.29
2018-06-19T02:56:09.037Z,83.41
2018-06-19T02:57:08.972Z,86.19
2018-06-19T02:58:08.937Z,84.60
2018-06-19T02:59:08.926Z,85.24
2018-06-19T03:00:08.895Z,85.85
2018-06-19T03:01:08.864Z,86.52
2018-06-19T03:02:08.851Z,86.24
2018-06-19T03:03:08.815Z,84.56
2018-06-19T03:04:08.840Z,85.91
2018-06-19T03:05:08.765Z,85.24
2018-06-19T03:06:08.749Z,85.71
2018-06-19T03:07:08.720Z,86.29
2018-06-19T03:08:08.701Z,85.33
2018-06-19T03:09:08.677Z,84.37
2018-06-19T03:10:08.641Z,85.81
2018-06-19T03:11:08.617Z,85.24
2018-06-19T03:12:08.598Z,85.04
2018-06-19T03:13:08.567Z,85.71
2018-06-19T03:14:08.553Z,85.24
2018-06-19T03:15:08.525Z,85.14
2018-06-19T03:16:08.497Z,83.93
2018-06-19T03:17:08.470Z,83.70
2018-06-19T03:18:08.450Z,82.49
2018-06-19T03:19:08.426Z,83.07
2018-06-19T03:20:08.401Z,84.80
2018-06-19T03:21:08.371Z,83.84
2018-06-19T03:22:08.350Z,84.70
2018-06-19T03:23:08.323Z,85.85
2018-06-19T03:24:08.305Z,85.37
2018-06-19T03:25:08.325Z,84.80
2018-06-19T03:26:08.249Z,85.85
2018-06-19T03:27:08.229Z,86.05
2018-06-19T03:28:08.203Z,86.24
2018-06-19T03:29:08.175Z,85.95
2018-06-19T03:30:08.228Z,84.80
2018-06-19T03:31:08.128Z,85.18
2018-06-19T03:32:08.103Z,86.05
2018-06-19T03:33:08.075Z,84.12
2018-06-19T03:34:08.059Z,84.99
2018-06-19T03:35:08.068Z,86.62
2018-06-19T03:36:08.010Z,83.74
2018-06-19T03:37:07.976Z,86.81
2018-06-19T03:38:07.961Z,85.28
2018-06-19T03:39:07.932Z,86.05
2018-06-19T03:40:07.910Z,86.52
2018-06-19T03:41:07.887Z,84.99
2018-06-19T03:42:07.851Z,84.99
2018-06-19T03:43:07.836Z,86.91
2018-06-19T03:44:07.801Z,85.28
2018-06-19T03:45:07.779Z,84.80
2018-06-19T03:46:07.756Z,86.14
2018-06-19T03:47:07.734Z,86.14
2018-06-19T03:48:07.714Z,83.93
2018-06-19T03:49:07.681Z,84.41
2018-06-19T03:50:07.662Z,83.84
2018-06-19T03:51:07.640Z,84.99
2018-06-19T03:52:07.615Z,83.84
2018-06-19T03:53:07.604Z,86.72
2018-06-19T03:54:07.561Z,86.81
2018-06-19T03:55:07.535Z,84.51
2018-06-19T03:56:07.511Z,86.05
2018-06-19T03:57:07.486Z,85.71
2018-06-19T03:58:07.457Z,84.31
2018-06-19T03:59:07.441Z,83.93
2018-06-19T04:00:07.408Z,85.66
2018-06-19T04:01:07.385Z,85.85
2018-06-19T04:02:07.367Z,86.05
2018-06-19T04:03:07.364Z,85.14
2018-06-19T04:04:07.314Z,83.22
2018-06-19T04:05:07.289Z,84.66
2018-06-19T04:06:07.265Z,84.75
2018-06-19T04:07:07.235Z,82.30
2018-06-19T04:08:07.219Z,83.93
2018-06-19T04:09:07.192Z,84.41
2018-06-19T04:10:07.161Z,85.28
2018-06-19T04:11:07.135Z,84.99
2018-06-19T04:12:07.117Z,85.47
2018-06-19T04:13:07.105Z,85.14
2018-06-19T04:14:07.066Z,84.22
2018-06-19T04:15:07.043Z,84.66
2018-06-19T04:16:07.019Z,84.60
2018-06-19T04:17:07.046Z,83.51
2018-06-19T04:18:06.969Z,83.07
2018-06-19T04:19:06.960Z,85.14
2018-06-19T04:20:06.920Z,82.87
2018-06-19T04:21:06.915Z,83.80
2018-06-19T04:22:06.870Z,84.56
2018-06-19T04:23:06.842Z,84.18
2018-06-19T04:24:06.813Z,83.80
2018-06-19T04:25:06.799Z,83.07
2018-06-19T04:26:06.762Z,84.60
2018-06-19T04:27:06.742Z,82.26
2018-06-19T04:28:06.722Z,83.70
2018-06-19T04:29:06.690Z,82.26
2018-06-19T04:30:06.672Z,82.84
2018-06-19T04:31:06.644Z,82.45
2018-06-19T04:32:06.616Z,82.93
2018-06-19T04:33:06.601Z,81.78
2018-06-19T04:34:06.565Z,82.74
2018-06-19T04:35:06.552Z,83.89
2018-06-19T04:36:06.516Z,81.87
2018-06-19T04:37:06.490Z,83.12
2018-06-19T04:38:06.475Z,83.60
2018-06-19T04:39:06.442Z,84.03
2018-06-19T04:40:06.424Z,84.22
2018-06-19T04:41:06.403Z,83.36
2018-06-19T04:42:06.393Z,81.49
2018-06-19T04:43:06.353Z,83.51
2018-06-19T04:44:06.317Z,81.82
2018-06-19T04:45:06.295Z,81.15
2018-06-19T04:46:06.271Z,83.51
2018-06-19T04:47:06.254Z,83.22
2018-06-19T04:48:06.218Z,82.35
2018-06-19T04:49:06.197Z,82.59
2018-06-19T04:50:06.179Z,80.76
2018-06-19T04:51:06.146Z,83.64
2018-06-19T04:52:06.131Z,83.84
2018-06-19T04:53:06.104Z,82.30
2018-06-19T04:54:06.071Z,83.93
2018-06-19T04:55:06.053Z,83.03
2018-06-19T04:56:06.020Z,81.72
2018-06-19T04:57:05.998Z,82.64
2018-06-19T04:58:05.977Z,82.35
2018-06-19T04:59:05.953Z,81.40
2018-06-19T05:00:05.926Z,81.78
2018-06-19T05:01:05.902Z,79.90
2018-06-19T05:02:05.892Z,79.42
2018-06-19T05:03:05.847Z,82.35
2018-06-19T05:04:05.829Z,82.16
2018-06-19T05:05:05.805Z,81.72
2018-06-19T05:06:05.772Z,81.68
2018-06-19T05:07:05.752Z,81.53
2018-06-19T05:08:05.730Z,82.07
2018-06-19T05:09:05.702Z,81.63
2018-06-19T05:10:05.679Z,81.49
2018-06-19T05:11:05.649Z,80.15
2018-06-19T05:12:05.624Z,81.49
2018-06-19T05:13:05.605Z,79.67
2018-06-19T05:14:05.575Z,78.27
2018-06-19T05:15:05.552Z,78.84
2018-06-19T05:16:05.532Z,79.90
2018-06-19T05:17:05.504Z,81.82
2018-06-19T05:18:05.485Z,79.61
2018-06-19T05:19:05.461Z,81.82
2018-06-19T05:20:05.426Z,81.43
2018-06-19T05:21:05.406Z,81.43
2018-06-19T05:22:05.381Z,80.57
2018-06-19T05:23:05.358Z,81.05
2018-06-19T05:24:05.331Z,81.34
2018-06-19T05:25:05.306Z,81.10
2018-06-19T05:26:05.281Z,80.53
2018-06-19T05:27:05.260Z,80.66
2018-06-19T05:28:05.233Z,81.34
2018-06-19T05:29:05.214Z,78.84
2018-06-19T05:30:05.180Z,80.09
2018-06-19T05:31:05.157Z,79.80
2018-06-19T05:32:05.135Z,81.15
2018-06-19T05:33:05.103Z,81.43
2018-06-19T05:34:05.094Z,78.45
2018-06-19T05:35:05.117Z,80.57
2018-06-19T05:36:05.034Z,79.80
2018-06-19T05:37:05.017Z,81.34
2018-06-19T05:38:04.990Z,80.86
2018-06-19T05:39:04.975Z,78.84
2018-06-19T05:40:04.944Z,79.90
2018-06-19T05:41:04.910Z,78.65
2018-06-19T05:42:04.895Z,82.05
2018-06-19T05:43:04.865Z,80.86
2018-06-19T05:44:04.842Z,81.43
2018-06-19T05:45:04.813Z,80.86
2018-06-19T05:46:04.787Z,80.38
2018-06-19T05:47:04.769Z,80.28
2018-06-19T05:48:04.737Z,79.61
2018-06-19T05:49:04.713Z,80.86
2018-06-19T05:50:04.701Z,80.66
2018-06-19T05:51:04.667Z,80.51
2018-06-19T05:52:04.643Z,80.47
2018-06-19T05:53:04.618Z,80.38
2018-06-19T05:54:04.593Z,78.84
2018-06-19T05:55:04.569Z,79.80
2018-06-19T05:56:04.545Z,80.57
2018-06-19T05:57:04.518Z,80.19
2018-06-19T05:58:04.495Z,79.71
2018-06-19T05:59:04.468Z,77.59
2018-06-19T06:00:04.501Z,79.99
2018-06-19T06:01:04.418Z,79.90
2018-06-19T06:02:04.398Z,78.84
2018-06-19T06:03:04.370Z,76.92
2018-06-19T06:04:04.359Z,79.07
2018-06-19T06:05:04.343Z,79.07
2018-06-19T06:06:04.296Z,75.42
2018-06-19T06:07:04.279Z,80.13
2018-06-19T06:08:04.247Z,79.27
2018-06-19T06:09:04.221Z,77.06
2018-06-19T06:10:04.205Z,79.07
2018-06-19T06:11:04.181Z,78.02
2018-06-19T06:12:04.156Z,76.96
2018-06-19T06:13:04.130Z,78.11
2018-06-19T06:14:04.097Z,78.78
2018-06-19T06:15:04.082Z,79.36
2018-06-19T06:16:04.048Z,80.42
2018-06-19T06:17:04.027Z,79.55
2018-06-19T06:18:04.010Z,79.84
2018-06-19T06:19:03.984Z,79.17
2018-06-19T06:20:03.956Z,79.21
2018-06-19T06:21:03.934Z,79.50
2018-06-19T06:22:03.921Z,79.27
2018-06-19T06:23:03.878Z,80.17
2018-06-19T06:24:03.860Z,77.96
2018-06-19T06:25:03.829Z,79.98
2018-06-19T06:26:03.808Z,82.09
2018-06-19T06:27:03.781Z,82.48
2018-06-19T06:28:03.758Z,80.75
2018-06-19T06:29:03.734Z,76.90
2018-06-19T06:30:03.707Z,79.30
2018-06-19T06:31:03.687Z,80.55
2018-06-19T06:32:03.659Z,80.94
2018-06-19T06:33:03.629Z,80.36
2018-06-19T06:34:03.617Z,80.55
2018-06-19T06:35:03.583Z,80.94
2018-06-19T06:36:03.561Z,79.79
2018-06-19T06:37:03.616Z,78.83
2018-06-19T06:38:03.538Z,80.17
2018-06-19T06:39:03.496Z,80.32
2018-06-19T06:40:03.463Z,80.07
2018-06-19T06:41:03.440Z,80.07
2018-06-19T06:42:03.422Z,77.38
2018-06-19T06:43:03.394Z,78.15
2018-06-19T06:44:03.386Z,79.02
2018-06-19T06:45:03.349Z,79.88
2018-06-19T06:46:03.318Z,78.77
2018-06-19T06:47:03.294Z,80.75
2018-06-19T06:48:03.270Z,80.02
2018-06-19T06:49:03.250Z,80.50
2018-06-19T06:50:03.223Z,80.55
2018-06-19T06:51:03.201Z,82.09
2018-06-19T06:52:03.178Z,78.06
2018-06-19T06:53:03.152Z,78.73
2018-06-19T06:54:03.122Z,80.65
2018-06-19T06:55:03.097Z,80.55
2018-06-19T06:56:03.081Z,79.79
2018-06-19T06:57:03.054Z,77.86
2018-06-19T06:58:03.049Z,79.98
2018-06-19T06:59:03.052Z,79.40
2018-06-19T07:00:02.993Z,78.34
2018-06-19T07:01:02.956Z,79.02
2018-06-19T07:02:02.942Z,78.83
2018-06-19T07:03:02.907Z,78.25
2018-06-19T07:04:02.880Z,79.98
2018-06-19T07:05:02.855Z,79.79
2018-06-19T07:06:02.880Z,77.29
2018-06-19T07:07:02.811Z,78.15
2018-06-19T07:08:02.819Z,76.52
2018-06-19T07:09:02.757Z,79.11
2018-06-19T07:10:02.808Z,78.06
2018-06-19T07:11:02.720Z,77.29
2018-06-19T07:12:02.689Z,77.19
2018-06-19T07:13:02.658Z,77.67
2018-06-19T07:14:02.642Z,77.19
2018-06-19T07:15:02.616Z,77.19
2018-06-19T07:16:02.592Z,77.29
2018-06-19T07:17:02.567Z,75.07
2018-06-19T07:18:02.536Z,75.84
2018-06-19T07:19:02.587Z,74.40
2018-06-19T07:20:02.485Z,74.11
2018-06-19T07:21:02.481Z,74.88
2018-06-19T07:22:02.440Z,74.79
2018-06-19T07:23:02.419Z,74.69
2018-06-19T07:24:02.393Z,75.56
2018-06-19T07:25:02.382Z,75.52
2018-06-19T07:26:02.382Z,74.30
2018-06-19T07:27:02.326Z,74.98
2018-06-19T07:28:02.295Z,74.88
2018-06-19T07:29:02.268Z,74.55
2018-06-19T07:30:02.247Z,75.32
2018-06-19T07:31:02.222Z,74.27
2018-06-19T07:32:02.264Z,71.58
2018-06-19T07:33:02.173Z,73.98
2018-06-19T07:34:02.146Z,73.69
2018-06-19T07:35:02.126Z,73.31
2018-06-19T07:36:02.097Z,72.92
2018-06-19T07:37:02.076Z,72.96
2018-06-19T07:38:02.094Z,74.30
2018-06-19T07:39:02.026Z,73.92
2018-06-19T07:40:02.007Z,72.16
2018-06-19T07:41:01.972Z,72.19
2018-06-19T07:42:01.957Z,75.07
2018-06-19T07:43:01.931Z,72.67
2018-06-19T07:44:01.914Z,76.14
2018-06-19T07:45:01.872Z,75.17
2018-06-19T07:46:01.858Z,73.06
2018-06-19T07:47:01.830Z,73.25
2018-06-19T07:48:01.804Z,74.21
2018-06-19T07:49:01.788Z,73.06
2018-06-19T07:50:01.752Z,74.11
2018-06-19T07:51:01.731Z,71.33
2018-06-19T07:52:01.719Z,74.50
2018-06-19T07:53:01.688Z,74.79
2018-06-19T07:54:01.655Z,72.29
2018-06-19T07:55:01.636Z,72.96
2018-06-19T07:56:01.606Z,74.69
2018-06-19T07:57:01.579Z,74.50
2018-06-19T07:58:01.560Z,71.33
2018-06-19T07:59:01.533Z,74.98
2018-06-19T08:00:01.519Z,73.25
2018-06-19T08:01:01.487Z,74.30
2018-06-19T08:02:01.464Z,73.35
2018-06-19T08:03:01.439Z,74.40
2018-06-19T08:04:01.419Z,73.73
2018-06-19T08:05:01.409Z,73.25
2018-06-19T08:06:01.384Z,74.21
2018-06-19T08:07:01.343Z,72.86
2018-06-19T08:08:01.342Z,74.30
2018-06-19T08:09:01.293Z,72.29
2018-06-19T08:10:01.273Z,73.83
2018-06-19T08:11:01.245Z,73.63
2018-06-19T08:12:01.244Z,72.38
2018-06-19T08:13:01.204Z,72.29
2018-06-19T08:14:01.167Z,72.96
2018-06-19T08:15:01.151Z,72.77
2018-06-19T08:16:01.117Z,70.65
2018-06-19T08:17:01.108Z,71.14
2018-06-19T08:18:01.070Z,71.42
2018-06-19T08:19:01.049Z,71.61
2018-06-19T08:20:01.020Z,71.04
2018-06-19T08:21:01.001Z,71.33
2018-06-19T08:22:01.053Z,70.75
2018-06-19T08:23:00.961Z,71.65
2018-06-19T08:24:00.936Z,70.94
2018-06-19T08:25:00.905Z,71.42
2018-06-19T08:26:00.970Z,69.50
2018-06-19T08:27:00.852Z,68.44
2018-06-19T08:28:00.828Z,70.88
2018-06-19T08:29:00.800Z,67.71
2018-06-19T08:30:00.786Z,69.69
2018-06-19T08:31:00.766Z,68.54
2018-06-19T08:32:00.731Z,67.00
2018-06-19T08:33:00.707Z,66.42
2018-06-19T08:34:00.685Z,65.94
2018-06-19T08:35:00.657Z,66.91
2018-06-19T08:36:00.636Z,65.66
2018-06-19T08:37:00.694Z,66.81
2018-06-19T08:38:00.595Z,64.40
2018-06-19T08:39:00.565Z,64.31
2018-06-19T08:40:00.536Z,62.68
2018-06-19T08:41:00.514Z,62.87
2018-06-19T08:42:00.487Z,62.03
2018-06-19T08:43:00.467Z,62.61
2018-06-19T08:44:00.435Z,60.88
2018-06-19T08:45:00.416Z,62.71
2018-06-19T08:46:00.391Z,61.26
2018-06-19T08:47:00.373Z,60.11
2018-06-19T08:48:00.381Z,60.88
2018-06-19T08:49:00.317Z,61.74
2018-06-19T08:50:00.291Z,60.69
2018-06-19T08:51:00.266Z,61.16
2018-06-19T08:52:00.253Z,63.38
2018-06-19T08:53:00.241Z,61.26
2018-06-19T08:54:00.197Z,60.56
2018-06-19T08:55:00.177Z,60.39
2018-06-19T08:56:00.142Z,57.80
2018-06-19T08:57:00.127Z,61.84
2018-06-19T08:58:00.109Z,60.21
2018-06-19T08:59:00.080Z,60.59
2018-06-19T09:00:00.057Z,57.51
2018-06-19T09:01:00.029Z,59.44
2018-06-19T09:02:00.000Z,58.47
2018-06-19T09:02:59.975Z,57.51
2018-06-19T09:03:59.960Z,56.45
2018-06-19T09:04:59.940Z,53.74
2018-06-19T09:05:59.902Z,52.42
2018-06-19T09:06:59.879Z,52.68
2018-06-19T09:07:59.861Z,53.57
2018-06-19T09:08:59.830Z,52.00
2018-06-19T09:09:59.817Z,50.85
2018-06-19T09:10:59.789Z,48.93
2018-06-19T09:11:59.770Z,49.79
2018-06-19T09:12:59.750Z,49.51
2018-06-19T09:13:59.718Z,48.93
2018-06-19T09:14:59.698Z,47.68
2018-06-19T09:15:59.660Z,45.95
2018-06-19T09:16:59.642Z,49.51
2018-06-19T09:17:59.610Z,45.28
2018-06-19T09:18:59.598Z,43.64
2018-06-19T09:19:59.631Z,42.10
2018-06-19T09:20:59.561Z,43.64
2018-06-19T09:21:59.517Z,44.89
2018-06-19T09:22:59.500Z,43.93
2018-06-19T09:23:59.472Z,43.84
2018-06-19T09:24:59.442Z,46.23
2018-06-19T09:25:59.429Z,44.70
2018-06-19T09:26:59.393Z,44.51
2018-06-19T09:27:59.373Z,45.08
2018-06-19T09:28:59.352Z,44.99
2018-06-19T09:29:59.318Z,45.08
2018-06-19T09:30:59.304Z,41.91
2018-06-19T09:31:59.270Z,46.91
2018-06-19T09:32:59.248Z,47.10
2018-06-19T09:33:59.232Z,46.14
2018-06-19T09:34:59.202Z,48.83
2018-06-19T09:35:59.174Z,48.16
2018-06-19T09:36:59.152Z,48.25
2018-06-19T09:37:59.132Z,47.39
2018-06-19T09:38:59.101Z,47.20
2018-06-19T09:39:59.117Z,46.53
2018-06-19T09:40:59.055Z,47.87
2018-06-19T09:41:59.027Z,47.68
2018-06-19T09:42:59.006Z,46.53
2018-06-19T09:43:58.976Z,46.23
2018-06-19T09:44:58.952Z,44.79
2018-06-19T09:45:58.935Z,50.66
2018-06-19T09:46:58.938Z,47.87
2018-06-19T09:47:58.894Z,48.08
2018-06-19T09:48:58.861Z,50.97
2018-06-19T09:49:58.832Z,50.30
2018-06-19T09:50:58.808Z,49.05
2018-06-19T09:51:58.786Z,47.80
2018-06-19T09:52:58.765Z,51.55
2018-06-19T09:53:58.815Z,49.15
2018-06-19T09:54:58.711Z,50.49
2018-06-19T09:55:58.693Z,52.34
2018-06-19T09:56:58.662Z,53.02
2018-06-19T09:57:58.643Z,55.52
2018-06-19T09:58:58.732Z,54.65
2018-06-19T09:59:58.588Z,55.04
2018-06-19T10:00:58.568Z,56.96
2018-06-19T10:01:58.545Z,56.87
2018-06-19T10:02:58.524Z,53.78
2018-06-19T10:03:58.496Z,59.37
2018-06-19T10:04:58.471Z,58.98
2018-06-19T10:05:58.450Z,57.54
2018-06-19T10:06:58.424Z,56.10
2018-06-19T10:07:58.398Z,58.60
2018-06-19T10:08:58.375Z,57.73
2018-06-19T10:09:58.362Z,60.04
2018-06-19T10:10:58.323Z,59.94
2018-06-19T10:11:58.404Z,57.15
2018-06-19T10:12:58.276Z,53.98
2018-06-19T10:13:58.257Z,58.40
2018-06-19T10:14:58.231Z,61.19
2018-06-19T10:15:58.203Z,58.34
2018-06-19T10:16:58.178Z,63.64
2018-06-19T10:17:58.159Z,62.87
2018-06-19T10:18:58.133Z,59.78
2018-06-19T10:19:58.111Z,61.04
2018-06-19T10:20:58.089Z,58.24
2018-06-19T10:21:58.061Z,60.65
2018-06-19T10:22:58.042Z,60.27
2018-06-19T10:23:58.007Z,61.13
2018-06-19T10:24:57.986Z,59.11
2018-06-19T10:25:57.967Z,58.82
2018-06-19T10:26:57.952Z,56.12
2018-06-19T10:27:57.910Z,62.00
2018-06-19T10:28:57.892Z,59.23
2018-06-19T10:29:57.899Z,61.45
2018-06-19T10:30:57.881Z,64.15
2018-06-19T10:31:57.836Z,61.16
2018-06-19T10:32:57.797Z,66.27
2018-06-19T10:33:57.773Z,67.03
2018-06-19T10:34:57.777Z,64.43
2018-06-19T10:35:57.724Z,64.53
2018-06-19T10:36:57.700Z,65.37
2018-06-19T10:37:57.672Z,63.44
2018-06-19T10:38:57.655Z,61.80
2018-06-19T10:39:57.630Z,61.74
2018-06-19T10:40:57.601Z,60.10
2018-06-19T10:41:57.585Z,63.38
2018-06-19T10:42:57.554Z,62.80
2018-06-19T10:43:57.538Z,64.25
2018-06-19T10:44:57.553Z,63.76
2018-06-19T10:45:57.541Z,66.46
2018-06-19T10:46:57.473Z,62.51
2018-06-19T10:47:57.439Z,67.33
2018-06-19T10:48:57.419Z,65.85
2018-06-19T10:49:57.387Z,64.02
2018-06-19T10:50:57.372Z,65.37
2018-06-19T10:51:57.343Z,61.80
2018-06-19T10:52:57.317Z,61.25
2018-06-19T10:53:57.305Z,62.41
2018-06-19T10:54:57.272Z,65.33
2018-06-19T10:55:57.267Z,65.91
2018-06-19T10:56:57.240Z,65.69
2018-06-19T10:57:57.222Z,63.02
2018-06-19T10:58:57.199Z,64.56
2018-06-19T10:59:57.154Z,65.88
2018-06-19T11:00:57.147Z,63.09
2018-06-19T11:01:57.121Z,66.27
2018-06-19T11:02:57.094Z,66.75
2018-06-19T11:03:57.075Z,66.75
2018-06-19T11:04:57.056Z,64.63
2018-06-19T11:05:57.030Z,66.17
2018-06-19T11:06:57.008Z,65.98
2018-06-19T11:07:56.983Z,65.88
2018-06-19T11:08:56.957Z,66.59
2018-06-19T11:09:56.930Z,65.14
2018-06-19T11:10:56.916Z,67.90
2018-06-19T11:11:56.883Z,66.78
2018-06-19T11:12:56.865Z,66.97
2018-06-19T11:13:56.844Z,70.54
2018-06-19T11:14:56.811Z,66.11
2018-06-19T11:15:56.797Z,67.55
2018-06-19T11:16:56.771Z,66.24
2018-06-19T11:17:56.745Z,71.64
2018-06-19T11:18:56.729Z,72.79
2018-06-19T11:19:56.705Z,72.02
2018-06-19T11:20:56.661Z,69.13
2018-06-19T11:21:56.630Z,71.06
2018-06-19T11:22:56.626Z,71.06
2018-06-19T11:23:56.653Z,71.28
2018-06-19T11:24:56.564Z,75.82
2018-06-19T11:25:56.538Z,71.09
2018-06-19T11:26:56.517Z,72.44
2018-06-19T11:27:56.490Z,71.80
2018-06-19T11:28:56.525Z,76.34
2018-06-19T11:29:56.449Z,76.72
2018-06-19T11:30:56.426Z,78.56
2018-06-19T11:31:56.394Z,75.27
2018-06-19T11:32:56.381Z,78.27
2018-06-19T11:33:56.351Z,78.17
2018-06-19T11:34:56.326Z,77.63
2018-06-19T11:35:56.311Z,79.08
2018-06-19T11:36:56.288Z,78.21
2018-06-19T11:37:56.258Z,79.85
2018-06-19T11:38:56.242Z,76.95
2018-06-19T11:39:56.236Z,77.53
2018-06-19T11:40:56.225Z,81.01
2018-06-19T11:41:56.185Z,79.66
2018-06-19T11:42:56.160Z,78.89
2018-06-19T11:43:56.122Z,81.98
2018-06-19T11:44:56.098Z,83.67
2018-06-19T11:45:56.083Z,80.10
2018-06-19T11:46:56.090Z,81.65
2018-06-19T11:47:56.033Z,79.81
2018-06-19T11:48:56.020Z,80.39
2018-06-19T11:49:56.005Z,80.49
2018-06-19T11:50:55.974Z,79.91
2018-06-19T11:51:55.955Z,77.01
2018-06-19T11:52:55.943Z,77.63
2018-06-19T11:53:55.909Z,79.95
2018-06-19T11:54:55.884Z,78.36
2018-06-19T11:55:55.883Z,79.66
2018-06-19T11:56:55.927Z,80.82
2018-06-19T11:57:55.828Z,81.78
2018-06-19T11:58:55.796Z,81.78
2018-06-19T11:59:55.775Z,79.27
2018-06-19T12:00:55.759Z,78.41
2018-06-19T12:01:55.772Z,80.91
2018-06-19T12:02:55.696Z,81.78
2018-06-19T12:03:55.674Z,79.27
2018-06-19T12:04:55.648Z,81.01
2018-06-19T12:05:55.619Z,80.91
2018-06-19T12:06:55.599Z,79.66
2018-06-19T12:07:55.569Z,82.65
2018-06-19T12:08:55.549Z,82.02
2018-06-19T12:09:55.529Z,85.21
2018-06-19T12:10:55.521Z,81.24
2018-06-19T12:11:55.480Z,83.66
2018-06-19T12:12:55.460Z,81.53
2018-06-19T12:13:55.439Z,83.47
2018-06-19T12:14:55.416Z,84.43
2018-06-19T12:15:55.387Z,83.85
2018-06-19T12:16:55.373Z,82.98
2018-06-19T12:17:55.362Z,81.96
2018-06-19T12:18:55.345Z,85.63
2018-06-19T12:19:55.324Z,82.93
2018-06-19T12:20:55.291Z,82.93
2018-06-19T12:21:55.258Z,83.89
2018-06-19T12:22:55.249Z,83.31
2018-06-19T12:23:55.276Z,86.51
2018-06-19T12:24:55.182Z,86.11
2018-06-19T12:25:55.168Z,86.75
2018-06-19T12:26:55.143Z,86.27
2018-06-19T12:27:55.114Z,85.11
2018-06-19T12:28:55.102Z,82.79
2018-06-19T12:29:55.075Z,84.33
2018-06-19T12:30:55.056Z,83.75
2018-06-19T12:31:55.037Z,85.49
2018-06-19T12:32:55.001Z,83.75
2018-06-19T12:33:54.980Z,82.02
2018-06-19T12:34:54.966Z,86.56
2018-06-19T12:35:54.932Z,84.24
2018-06-19T12:36:54.923Z,84.33
2018-06-19T12:37:54.893Z,83.51
2018-06-19T12:38:54.869Z,84.86
2018-06-19T12:39:54.841Z,85.98
2018-06-19T12:40:54.828Z,85.98
2018-06-19T12:41:54.805Z,87.04
2018-06-19T12:42:54.830Z,85.88
2018-06-19T12:43:54.763Z,83.18
2018-06-19T12:44:54.737Z,85.11
2018-06-19T12:45:54.715Z,85.40
2018-06-19T12:46:54.718Z,83.27
2018-06-19T12:47:54.669Z,85.53
2018-06-19T12:48:54.641Z,84.52
2018-06-19T12:49:54.634Z,82.29
2018-06-19T12:50:54.608Z,85.97
2018-06-19T12:51:54.573Z,85.62